Time;durP1;ratioP1;P1;durP2;ratioP2;P2;SDS_P1;SDS_P2;PMS_P1;PMS_P2;Temp;Humidity;BMP_temperature;BMP_pressure;BME280_temperature;BME280_humidity;BME280_pressure;Samples;Min_cycle;Max_cycle;Signal;HPM_P1;HPM_P2
2021/11/29 00:00:17;;;;;;;25.70;16.15;;;;;;;;;;5092953;28;20039;-67
2021/11/29 00:02:47;;;;;;;25.63;16.00;;;;;;;;;;5093871;28;20365;-67
2021/11/29 00:05:13;;;;;;;26.50;15.60;;;;;;;;;;5093243;28;20023;-67
2021/11/29 00:07:39;;;;;;;24.38;15.45;;;;;;;;;;5091669;28;20273;-67
2021/11/29 00:10:05;;;;;;;26.30;15.25;;;;;;;;;;5092307;28;20028;-67
2021/11/29 00:12:32;;;;;;;22.17;13.50;;;;;;;;;;5093057;28;20484;-67
2021/11/29 00:14:58;;;;;;;20.67;13.30;;;;;;;;;;5093708;28;20020;-67
2021/11/29 00:17:24;;;;;;;24.40;15.10;;;;;;;;;;5092605;28;20123;-67
2021/11/29 00:19:50;;;;;;;25.00;15.10;;;;;;;;;;5093439;28;20107;-67
2021/11/29 00:22:16;;;;;;;27.05;16.10;;;;;;;;;;5092528;28;20228;-67
2021/11/29 00:24:42;;;;;;;25.80;15.77;;;;;;;;;;5093571;28;20024;-67
2021/11/29 00:27:08;;;;;;;29.02;16.33;;;;;;;;;;5092991;28;20268;-66
2021/11/29 00:29:34;;;;;;;25.88;16.27;;;;;;;;;;5093368;28;20043;-67
2021/11/29 00:32:00;;;;;;;30.98;18.55;;;;;;;;;;5093509;28;20016;-68
2021/11/29 00:34:26;;;;;;;31.42;18.75;;;;;;;;;;5092479;28;20016;-67
2021/11/29 00:36:52;;;;;;;34.25;19.13;;;;;;;;;;5092993;28;20039;-68
2021/11/29 00:39:19;;;;;;;34.47;21.15;;;;;;;;;;5091053;28;20048;-67
2021/11/29 00:41:45;;;;;;;33.08;20.55;;;;;;;;;;5091596;28;20487;-67
2021/11/29 00:44:11;;;;;;;36.10;21.38;;;;;;;;;;5093115;28;20430;-66
2021/11/29 00:46:37;;;;;;;36.17;21.15;;;;;;;;;;5093269;28;20052;-68
2021/11/29 00:49:03;;;;;;;33.05;21.20;;;;;;;;;;5094270;28;20044;-67
2021/11/29 00:51:29;;;;;;;33.53;21.40;;;;;;;;;;5093755;28;20020;-68
2021/11/29 00:53:55;;;;;;;34.78;20.65;;;;;;;;;;5094398;28;20047;-68
2021/11/29 00:56:22;;;;;;;33.45;20.30;;;;;;;;;;5093611;28;20028;-68
2021/11/29 00:58:48;;;;;;;33.53;21.70;;;;;;;;;;5094193;28;20025;-68
2021/11/29 01:01:15;;;;;;;35.60;21.23;;;;;;;;;;5094333;28;20024;-68
2021/11/29 01:03:41;;;;;;;37.13;22.73;;;;;;;;;;5094970;28;20024;-68
2021/11/29 01:06:07;;;;;;;36.92;22.58;;;;;;;;;;5093918;28;20120;-66
2021/11/29 01:08:33;;;;;;;36.28;21.17;;;;;;;;;;5093451;28;20039;-67
2021/11/29 01:10:59;;;;;;;38.35;21.45;;;;;;;;;;5093885;28;20542;-65
2021/11/29 01:13:25;;;;;;;37.17;22.90;;;;;;;;;;5093248;28;20059;-67
2021/11/29 01:15:51;;;;;;;38.45;21.27;;;;;;;;;;5094121;28;20028;-67
2021/11/29 01:18:17;;;;;;;37.05;22.02;;;;;;;;;;5092829;28;20032;-67
2021/11/29 01:20:44;;;;;;;37.55;21.75;;;;;;;;;;5094044;28;20084;-67
2021/11/29 01:23:12;;;;;;;39.15;22.77;;;;;;;;;;5092805;28;20031;-65
2021/11/29 01:25:38;;;;;;;37.40;22.80;;;;;;;;;;5094044;28;20020;-67
2021/11/29 01:28:05;;;;;;;39.85;23.92;;;;;;;;;;5093871;28;20024;-67
2021/11/29 01:30:31;;;;;;;40.08;23.25;;;;;;;;;;5092753;28;20028;-68
2021/11/29 01:32:57;;;;;;;41.25;23.85;;;;;;;;;;5093430;28;20020;-67
2021/11/29 01:35:23;;;;;;;43.28;24.70;;;;;;;;;;5092790;28;20104;-67
2021/11/29 01:37:49;;;;;;;42.30;24.48;;;;;;;;;;5093674;28;20106;-68
2021/11/29 01:40:16;;;;;;;36.30;21.67;;;;;;;;;;5092379;28;20530;-66
2021/11/29 01:43:01;;;;;;;43.70;24.50;;;;;;;;;;5093631;28;20530;-68
2021/11/29 01:45:29;;;;;;;43.10;24.42;;;;;;;;;;5092765;28;20043;-67
2021/11/29 01:47:55;;;;;;;38.40;23.52;;;;;;;;;;5093060;28;20115;-67
2021/11/29 01:50:21;;;;;;;45.55;24.83;;;;;;;;;;5092108;28;20055;-66
2021/11/29 01:52:47;;;;;;;42.53;25.35;;;;;;;;;;5093316;28;20077;-67
2021/11/29 01:55:13;;;;;;;42.50;23.92;;;;;;;;;;5091189;28;20359;-67
2021/11/29 01:57:40;;;;;;;39.45;23.02;;;;;;;;;;5092698;28;20016;-67
2021/11/29 02:00:07;;;;;;;41.80;23.70;;;;;;;;;;5093013;28;20427;-67
2021/11/29 02:02:34;;;;;;;44.40;24.65;;;;;;;;;;5093319;28;20035;-67
2021/11/29 02:05:00;;;;;;;43.20;25.10;;;;;;;;;;5093374;28;20024;-66
2021/11/29 02:07:27;;;;;;;43.38;24.48;;;;;;;;;;5092005;28;20032;-66
2021/11/29 02:09:53;;;;;;;44.13;24.60;;;;;;;;;;5092893;28;20032;-68
2021/11/29 02:12:20;;;;;;;45.65;25.00;;;;;;;;;;5092241;28;20020;-67
2021/11/29 02:14:48;;;;;;;45.28;24.52;;;;;;;;;;5092839;28;20024;-67
2021/11/29 02:17:14;;;;;;;44.85;25.27;;;;;;;;;;5092054;28;20103;-66
2021/11/29 02:19:42;;;;;;;45.80;25.50;;;;;;;;;;5092723;28;20044;-67
2021/11/29 02:22:11;;;;;;;47.10;27.73;;;;;;;;;;5092439;28;20110;-66
2021/11/29 02:24:37;;;;;;;43.25;25.70;;;;;;;;;;5092072;28;20020;-67
2021/11/29 02:27:07;;;;;;;46.63;27.25;;;;;;;;;;5091516;28;20020;-66
2021/11/29 02:29:34;;;;;;;45.42;26.70;;;;;;;;;;5092173;28;20141;-66
2021/11/29 02:32:01;;;;;;;48.35;25.73;;;;;;;;;;5092715;28;20025;-67
2021/11/29 02:34:29;;;;;;;49.28;26.48;;;;;;;;;;5091794;28;20024;-67
2021/11/29 02:36:57;;;;;;;45.15;26.92;;;;;;;;;;5092243;28;20028;-67
2021/11/29 02:39:23;;;;;;;47.13;26.40;;;;;;;;;;5091433;28;20036;-67
2021/11/29 02:41:50;;;;;;;45.17;26.33;;;;;;;;;;5092674;28;20024;-67
2021/11/29 02:44:16;;;;;;;48.20;27.40;;;;;;;;;;5091908;28;20035;-67
2021/11/29 02:46:43;;;;;;;47.70;26.42;;;;;;;;;;5092501;28;20028;-67
2021/11/29 02:49:10;;;;;;;44.30;26.17;;;;;;;;;;5092083;28;20048;-67
2021/11/29 02:51:39;;;;;;;49.80;28.63;;;;;;;;;;5091440;28;20020;-67
2021/11/29 02:54:28;;;;;;;46.13;28.60;;;;;;;;;;5092306;28;20020;-67
2021/11/29 02:56:55;;;;;;;48.05;26.67;;;;;;;;;;5084066;28;20263;-67
2021/11/29 02:59:26;;;;;;;48.83;28.42;;;;;;;;;;5091319;28;20129;-67
2021/11/29 03:01:54;;;;;;;48.80;27.00;;;;;;;;;;5092121;28;20023;-67
2021/11/29 03:04:21;;;;;;;47.80;28.15;;;;;;;;;;5090019;28;20453;-67
2021/11/29 03:06:47;;;;;;;51.75;29.77;;;;;;;;;;5091717;28;20047;-67
2021/11/29 03:09:13;;;;;;;47.58;28.17;;;;;;;;;;5090742;28;20082;-65
2021/11/29 03:11:39;;;;;;;51.42;29.02;;;;;;;;;;5092001;28;20032;-67
2021/11/29 03:14:05;;;;;;;52.55;29.27;;;;;;;;;;5091925;28;20017;-67
2021/11/29 03:16:31;;;;;;;51.28;28.30;;;;;;;;;;5091146;28;20036;-66
2021/11/29 03:18:57;;;;;;;54.25;29.40;;;;;;;;;;5091849;28;20040;-67
2021/11/29 03:21:24;;;;;;;52.30;29.05;;;;;;;;;;5091193;28;20052;-67
2021/11/29 03:23:52;;;;;;;49.38;28.52;;;;;;;;;;5091463;28;20381;-66
2021/11/29 03:26:19;;;;;;;53.97;31.08;;;;;;;;;;5091066;28;20088;-67
2021/11/29 03:28:55;;;;;;;47.17;27.88;;;;;;;;;;5091711;28;20106;-67
2021/11/29 03:31:23;;;;;;;44.63;24.20;;;;;;;;;;5090858;28;20032;-67
2021/11/29 03:33:50;;;;;;;41.83;24.58;;;;;;;;;;5091850;28;20028;-66
2021/11/29 03:36:17;;;;;;;43.17;25.17;;;;;;;;;;5090357;28;20537;-66
2021/11/29 03:38:43;;;;;;;44.63;26.13;;;;;;;;;;5090363;28;20040;-66
2021/11/29 03:41:09;;;;;;;43.83;25.50;;;;;;;;;;5090453;28;20465;-66
2021/11/29 03:43:35;;;;;;;45.45;26.65;;;;;;;;;;5089083;28;20043;-66
2021/11/29 03:46:01;;;;;;;43.03;25.08;;;;;;;;;;5089741;28;20020;-67
2021/11/29 03:48:27;;;;;;;41.97;22.90;;;;;;;;;;5088724;28;20052;-66
2021/11/29 03:50:54;;;;;;;38.20;23.70;;;;;;;;;;5089351;28;20093;-66
2021/11/29 03:53:19;;;;;;;42.40;23.63;;;;;;;;;;5088893;28;20025;-66
2021/11/29 03:55:46;;;;;;;43.10;24.23;;;;;;;;;;5089795;28;20027;-67
2021/11/29 03:58:12;;;;;;;39.20;23.33;;;;;;;;;;5089494;28;20032;-65
2021/11/29 04:00:38;;;;;;;46.42;24.75;;;;;;;;;;5089026;28;20035;-66
2021/11/29 04:03:05;;;;;;;43.20;24.80;;;;;;;;;;5090395;28;20029;-66
2021/11/29 04:05:31;;;;;;;45.58;25.33;;;;;;;;;;5090176;28;20417;-67
2021/11/29 04:07:57;;;;;;;42.75;24.08;;;;;;;;;;5090588;28;20381;-67
2021/11/29 04:10:23;;;;;;;43.15;25.45;;;;;;;;;;5089800;28;20123;-66
2021/11/29 04:12:49;;;;;;;44.53;25.58;;;;;;;;;;5090627;28;20043;-66
2021/11/29 04:15:15;;;;;;;39.25;23.15;;;;;;;;;;5090093;28;20028;-65
2021/11/29 04:17:41;;;;;;;42.33;24.55;;;;;;;;;;5091216;28;20111;-66
2021/11/29 04:20:09;;;;;;;43.33;23.95;;;;;;;;;;5090776;28;20036;-67
2021/11/29 04:22:36;;;;;;;39.58;24.52;;;;;;;;;;5093250;28;20616;-66
2021/11/29 04:25:03;;;;;;;43.05;23.95;;;;;;;;;;5094183;28;20028;-66
2021/11/29 04:27:30;;;;;;;40.60;23.00;;;;;;;;;;5093401;28;20031;-66
2021/11/29 04:29:57;;;;;;;40.85;21.92;;;;;;;;;;5094287;28;20572;-67
2021/11/29 04:32:24;;;;;;;41.95;24.23;;;;;;;;;;5093627;28;20107;-67
2021/11/29 04:34:50;;;;;;;43.83;23.92;;;;;;;;;;5094135;28;20028;-67
2021/11/29 04:37:16;;;;;;;41.85;23.95;;;;;;;;;;5093560;28;20519;-65
2021/11/29 04:39:42;;;;;;;42.60;24.08;;;;;;;;;;5093739;28;20114;-67
2021/11/29 04:42:08;;;;;;;42.50;23.98;;;;;;;;;;5094048;28;20457;-67
2021/11/29 04:44:34;;;;;;;46.45;24.45;;;;;;;;;;5093119;28;20020;-67
2021/11/29 04:47:00;;;;;;;44.65;25.05;;;;;;;;;;5093888;28;20097;-66
2021/11/29 04:49:26;;;;;;;42.53;24.05;;;;;;;;;;5093171;28;20097;-66
2021/11/29 04:51:52;;;;;;;40.17;22.73;;;;;;;;;;5093672;28;20032;-67
2021/11/29 04:54:18;;;;;;;50.13;25.55;;;;;;;;;;5093128;28;20111;-65
2021/11/29 04:56:44;;;;;;;44.05;23.83;;;;;;;;;;5094013;28;20095;-65
2021/11/29 04:59:10;;;;;;;46.03;24.63;;;;;;;;;;5093641;28;20434;-67
2021/11/29 05:01:36;;;;;;;42.30;23.75;;;;;;;;;;5092868;28;20100;-66
2021/11/29 05:04:02;;;;;;;42.03;23.33;;;;;;;;;;5093778;28;20028;-66
2021/11/29 05:06:28;;;;;;;43.80;23.45;;;;;;;;;;5093081;28;20067;-66
2021/11/29 05:08:54;;;;;;;42.65;22.65;;;;;;;;;;5093595;28;20077;-66
2021/11/29 05:11:20;;;;;;;43.50;23.15;;;;;;;;;;5092723;28;20020;-66
2021/11/29 05:13:46;;;;;;;44.13;24.02;;;;;;;;;;5093350;28;20028;-66
2021/11/29 05:16:12;;;;;;;40.45;22.52;;;;;;;;;;5093173;28;20296;-67
2021/11/29 05:18:38;;;;;;;39.03;21.67;;;;;;;;;;5092760;28;20119;-66
2021/11/29 05:21:04;;;;;;;40.70;23.05;;;;;;;;;;5093309;28;20017;-66
2021/11/29 05:23:31;;;;;;;39.58;21.85;;;;;;;;;;5092378;28;20109;-66
2021/11/29 05:25:57;;;;;;;43.33;22.73;;;;;;;;;;5093080;28;20220;-66
2021/11/29 05:28:24;;;;;;;42.03;23.30;;;;;;;;;;5092067;28;20028;-66
2021/11/29 05:30:50;;;;;;;47.15;24.20;;;;;;;;;;5092953;28;20077;-65
2021/11/29 05:33:16;;;;;;;43.28;23.27;;;;;;;;;;5092031;28;20415;-64
2021/11/29 05:35:42;;;;;;;40.83;22.60;;;;;;;;;;5092470;28;20016;-65
2021/11/29 05:38:08;;;;;;;38.28;21.60;;;;;;;;;;5092594;28;20355;-66
2021/11/29 05:40:34;;;;;;;38.63;22.75;;;;;;;;;;5092107;28;20144;-66
2021/11/29 05:43:00;;;;;;;45.17;23.13;;;;;;;;;;5092646;28;20103;-65
2021/11/29 05:45:26;;;;;;;44.60;24.35;;;;;;;;;;5092016;28;20056;-65
2021/11/29 05:47:52;;;;;;;41.63;22.15;;;;;;;;;;5092830;28;20085;-66
2021/11/29 05:50:19;;;;;;;36.13;21.40;;;;;;;;;;5091605;28;20416;-64
2021/11/29 05:52:45;;;;;;;36.55;21.33;;;;;;;;;;5092676;28;20457;-67
2021/11/29 05:55:12;;;;;;;39.35;22.42;;;;;;;;;;5092659;28;20043;-67
2021/11/29 05:57:39;;;;;;;40.70;22.08;;;;;;;;;;5090388;28;20837;-67
2021/11/29 06:00:09;;;;;;;48.10;23.33;;;;;;;;;;5092373;28;20060;-68
2021/11/29 06:02:35;;;;;;;43.28;23.30;;;;;;;;;;5091643;28;20100;-67
2021/11/29 06:05:01;;;;;;;43.25;24.50;;;;;;;;;;5092567;28;20119;-65
2021/11/29 06:07:27;;;;;;;42.08;23.17;;;;;;;;;;5091606;28;20099;-66
2021/11/29 06:09:53;;;;;;;43.67;22.15;;;;;;;;;;5092471;28;20533;-66
2021/11/29 06:12:19;;;;;;;38.38;21.55;;;;;;;;;;5091314;28;20028;-63
2021/11/29 06:14:45;;;;;;;34.47;19.65;;;;;;;;;;5092197;28;20027;-65
2021/11/29 06:17:11;;;;;;;37.75;20.58;;;;;;;;;;5092045;28;20032;-67
2021/11/29 06:19:37;;;;;;;33.10;19.35;;;;;;;;;;5091461;28;20020;-66
2021/11/29 06:22:03;;;;;;;35.85;19.52;;;;;;;;;;5091891;28;20393;-68
2021/11/29 06:24:29;;;;;;;33.15;18.73;;;;;;;;;;5091138;28;20027;-67
2021/11/29 06:26:55;;;;;;;32.45;19.23;;;;;;;;;;5091999;28;20020;-68
2021/11/29 06:29:21;;;;;;;31.35;17.67;;;;;;;;;;5089384;28;20031;-68
2021/11/29 06:31:47;;;;;;;29.58;17.73;;;;;;;;;;5091635;28;20099;-67
2021/11/29 06:34:13;;;;;;;31.13;17.35;;;;;;;;;;5091641;28;20456;-69
2021/11/29 06:36:39;;;;;;;36.13;18.77;;;;;;;;;;5091086;28;20027;-71
2021/11/29 06:39:05;;;;;;;36.55;18.23;;;;;;;;;;5091440;28;20335;-70
2021/11/29 06:41:32;;;;;;;30.23;17.23;;;;;;;;;;5090709;28;20031;-70
2021/11/29 06:43:58;;;;;;;30.23;16.85;;;;;;;;;;5090614;28;20039;-68
2021/11/29 06:46:24;;;;;;;32.25;18.88;;;;;;;;;;5090755;28;20162;-67
2021/11/29 06:48:50;;;;;;;29.10;16.42;;;;;;;;;;5091519;28;20059;-68
2021/11/29 06:51:17;;;;;;;35.30;16.77;;;;;;;;;;5091213;28;20024;-68
2021/11/29 06:53:43;;;;;;;29.83;16.98;;;;;;;;;;5091094;28;20024;-71
2021/11/29 06:56:10;;;;;;;28.77;16.55;;;;;;;;;;5093808;28;20031;-67
2021/11/29 06:58:36;;;;;;;32.08;18.00;;;;;;;;;;5090394;28;20053;-66
2021/11/29 07:01:03;;;;;;;28.20;16.52;;;;;;;;;;5090723;28;20024;-67
2021/11/29 07:03:30;;;;;;;30.67;15.30;;;;;;;;;;5090728;28;20034;-66
2021/11/29 07:05:56;;;;;;;28.10;15.65;;;;;;;;;;5091279;28;20034;-68
2021/11/29 07:08:24;;;;;;;26.52;15.45;;;;;;;;;;5094146;28;20039;-66
2021/11/29 07:10:51;;;;;;;29.95;15.48;;;;;;;;;;5110760;28;20115;-68
2021/11/29 07:13:18;;;;;;;24.92;13.88;;;;;;;;;;5111324;28;20096;-68
2021/11/29 07:15:45;;;;;;;29.55;15.45;;;;;;;;;;5110726;28;20034;-68
2021/11/29 07:18:13;;;;;;;24.17;13.82;;;;;;;;;;5110822;28;20016;-68
2021/11/29 07:20:39;;;;;;;23.38;13.27;;;;;;;;;;5109692;28;20031;-67
2021/11/29 07:23:05;;;;;;;24.75;14.25;;;;;;;;;;5087895;28;20428;-69
2021/11/29 07:25:32;;;;;;;32.95;17.35;;;;;;;;;;5083995;28;20464;-70
2021/11/29 07:27:58;;;;;;;26.70;12.73;;;;;;;;;;5091352;28;20016;-71
2021/11/29 07:30:25;;;;;;;22.58;13.32;;;;;;;;;;5101901;28;20024;-71
2021/11/29 07:32:55;;;;;;;25.67;13.07;;;;;;;;;;5096236;28;20066;-70
2021/11/29 07:35:23;;;;;;;23.45;13.82;;;;;;;;;;5101846;28;20024;-68
2021/11/29 07:37:52;;;;;;;21.40;11.35;;;;;;;;;;5083070;28;20020;-68
2021/11/29 07:40:30;;;;;;;22.00;11.35;;;;;;;;;;5104227;28;20090;-69
2021/11/29 07:43:00;;;;;;;23.85;12.90;;;;;;;;;;5101311;28;20043;-71
2021/11/29 07:45:26;;;;;;;21.05;12.35;;;;;;;;;;5100445;28;20031;-71
2021/11/29 07:47:53;;;;;;;17.85;10.68;;;;;;;;;;5090760;28;20020;-72
2021/11/29 07:50:19;;;;;;;21.10;11.75;;;;;;;;;;5090003;28;20048;-68
2021/11/29 07:52:46;;;;;;;21.83;10.35;;;;;;;;;;5087569;28;20492;-72
2021/11/29 07:55:15;;;;;;;19.30;10.63;;;;;;;;;;5093686;28;20094;-72
2021/11/29 07:57:41;;;;;;;33.28;12.00;;;;;;;;;;5114120;27;20039;-72
2021/11/29 08:00:17;;;;;;;18.05;10.10;;;;;;;;;;5114590;28;20545;-71
2021/11/29 08:02:43;;;;;;;22.98;10.52;;;;;;;;;;5094605;28;20081;-71
2021/11/29 08:05:09;;;;;;;19.45;9.30;;;;;;;;;;5093889;28;20032;-70
2021/11/29 08:07:35;;;;;;;15.35;8.35;;;;;;;;;;5086551;28;20024;-70
2021/11/29 08:10:02;;;;;;;16.10;9.30;;;;;;;;;;5092248;28;20489;-70
2021/11/29 08:12:28;;;;;;;16.88;9.65;;;;;;;;;;5092269;28;20111;-71
2021/11/29 08:14:54;;;;;;;17.83;10.15;;;;;;;;;;5093873;28;20028;-70
2021/11/29 08:17:27;;;;;;;19.27;9.30;;;;;;;;;;5093616;28;20126;-67
2021/11/29 08:19:53;;;;;;;18.08;10.23;;;;;;;;;;5090777;28;20039;-71
2021/11/29 08:22:19;;;;;;;13.63;8.05;;;;;;;;;;5078150;28;20044;-70
2021/11/29 08:24:45;;;;;;;18.52;9.38;;;;;;;;;;5090998;28;20035;-72
2021/11/29 08:27:12;;;;;;;18.92;9.90;;;;;;;;;;5096023;28;20032;-71
2021/11/29 08:29:38;;;;;;;20.65;9.45;;;;;;;;;;5091641;28;20500;-71
2021/11/29 08:32:05;;;;;;;14.10;8.05;;;;;;;;;;5093748;28;20024;-71
2021/11/29 08:34:31;;;;;;;14.00;8.15;;;;;;;;;;5092662;28;20027;-71
2021/11/29 08:36:57;;;;;;;14.75;8.77;;;;;;;;;;5093038;28;20024;-70
2021/11/29 08:39:25;;;;;;;17.05;8.73;;;;;;;;;;5086628;28;20040;-68
2021/11/29 08:41:51;;;;;;;20.38;8.98;;;;;;;;;;5092565;28;20108;-71
2021/11/29 08:44:17;;;;;;;19.23;9.70;;;;;;;;;;5093493;28;20465;-71
2021/11/29 08:46:48;;;;;;;15.85;8.32;;;;;;;;;;5092759;28;20020;-72
2021/11/29 08:49:18;;;;;;;17.85;8.77;;;;;;;;;;5092417;28;20056;-71
2021/11/29 08:51:44;;;;;;;16.50;8.27;;;;;;;;;;5091001;28;20639;-71
2021/11/29 08:54:11;;;;;;;14.75;7.85;;;;;;;;;;5093105;28;20084;-72
2021/11/29 08:56:37;;;;;;;19.55;8.80;;;;;;;;;;5106186;28;20107;-71
2021/11/29 08:59:04;;;;;;;17.30;8.00;;;;;;;;;;5092716;28;20537;-71
2021/11/29 09:01:30;;;;;;;11.70;7.03;;;;;;;;;;5091058;28;20028;-70
2021/11/29 09:03:56;;;;;;;13.43;7.25;;;;;;;;;;5092128;28;20141;-72
2021/11/29 09:06:29;;;;;;;13.30;7.65;;;;;;;;;;5091338;28;20016;-67
2021/11/29 09:08:55;;;;;;;16.25;7.85;;;;;;;;;;5088349;28;20036;-71
2021/11/29 09:11:23;;;;;;;12.65;8.00;;;;;;;;;;5092616;28;20020;-71
2021/11/29 09:13:49;;;;;;;15.73;7.60;;;;;;;;;;5092122;28;20115;-71
2021/11/29 09:16:16;;;;;;;17.13;7.53;;;;;;;;;;5092499;28;20047;-73
2021/11/29 09:18:43;;;;;;;13.60;7.10;;;;;;;;;;5091479;28;20229;-72
2021/11/29 09:21:11;;;;;;;11.98;7.28;;;;;;;;;;5093076;28;20550;-71
2021/11/29 09:23:37;;;;;;;15.90;6.28;;;;;;;;;;5092448;28;20081;-71
2021/11/29 09:26:04;;;;;;;12.95;6.80;;;;;;;;;;5103793;28;20020;-72
2021/11/29 09:28:30;;;;;;;11.68;5.70;;;;;;;;;;5096610;28;20024;-70
2021/11/29 09:30:56;;;;;;;20.17;5.90;;;;;;;;;;5092547;28;20024;-70
2021/11/29 09:33:29;;;;;;;12.50;5.50;;;;;;;;;;5092718;28;20085;-69
2021/11/29 09:35:56;;;;;;;8.02;4.75;;;;;;;;;;5092340;28;20024;-71
2021/11/29 09:38:23;;;;;;;15.30;5.90;;;;;;;;;;5091846;28;20077;-73
2021/11/29 09:40:50;;;;;;;14.43;5.13;;;;;;;;;;5111097;28;20031;-71
2021/11/29 09:43:17;;;;;;;12.68;6.15;;;;;;;;;;5097160;28;20453;-73
2021/11/29 09:45:44;;;;;;;14.57;6.03;;;;;;;;;;5091481;28;20032;-73
2021/11/29 09:48:10;;;;;;;11.98;5.13;;;;;;;;;;5091160;28;20383;-72
2021/11/29 09:50:38;;;;;;;14.13;5.32;;;;;;;;;;5091909;28;20036;-71
2021/11/29 09:53:04;;;;;;;12.20;5.30;;;;;;;;;;5092760;28;20025;-72
2021/11/29 09:55:31;;;;;;;9.45;4.50;;;;;;;;;;5097839;28;20016;-71
2021/11/29 09:57:58;;;;;;;18.48;5.15;;;;;;;;;;5113046;28;20034;-72
2021/11/29 10:00:30;;;;;;;9.80;4.20;;;;;;;;;;5104609;28;20043;-68
2021/11/29 10:02:56;;;;;;;7.97;3.92;;;;;;;;;;5091706;28;20052;-72
2021/11/29 10:05:24;;;;;;;11.77;4.18;;;;;;;;;;5092315;28;20020;-72
2021/11/29 10:07:51;;;;;;;10.68;4.28;;;;;;;;;;5090621;28;20091;-71
2021/11/29 10:10:36;;;;;;;10.07;4.68;;;;;;;;;;5104988;28;20110;-71
2021/11/29 10:13:05;;;;;;;15.75;4.75;;;;;;;;;;5092165;28;20103;-72
2021/11/29 10:15:33;;;;;;;8.50;3.97;;;;;;;;;;5090984;28;20031;-73
2021/11/29 10:18:18;;;;;;;8.50;4.43;;;;;;;;;;5091774;28;20481;-72
2021/11/29 10:20:54;;;;;;;8.25;3.92;;;;;;;;;;5081366;28;20684;-74
2021/11/29 10:23:25;;;;;;;10.70;3.80;;;;;;;;;;5086699;28;20058;-73
2021/11/29 10:25:51;;;;;;;17.00;4.57;;;3.80;99.90;;;;;;5093468;28;20028;-72
2021/11/29 10:28:28;;;;;;;11.20;4.40;;;3.80;99.90;;;;;;5090200;28;20381;-73
2021/11/29 10:31:20;;;;;;;6.80;3.72;;;3.80;99.90;;;;;;5090928;28;20024;-72
2021/11/29 10:33:45;;;;;;;11.55;3.58;;;3.90;99.90;;;;;;5090129;28;20028;-73
2021/11/29 10:36:13;;;;;;;12.55;3.90;;;4.00;99.90;;;;;;5091511;28;20081;-75
2021/11/29 10:38:41;;;;;;;7.70;4.13;;;3.90;99.90;;;;;;5087989;28;20035;-71
2021/11/29 10:41:08;;;;;;;7.60;3.45;;;3.90;99.90;;;;;;5111971;28;20027;-72
2021/11/29 10:43:42;;;;;;;7.53;3.63;;;3.80;99.90;;;;;;5111531;28;20027;-71
2021/11/29 10:46:24;;;;;;;7.45;3.63;;;3.70;99.90;;;;;;5093657;28;20024;-71
2021/11/29 10:48:51;;;;;;;7.32;3.33;;;3.60;99.90;;;;;;5088966;28;20048;-71
2021/11/29 10:51:19;;;;;;;10.35;3.80;;;3.60;99.90;;;;;;5091277;28;20028;-71
2021/11/29 10:54:01;;;;;;;9.52;3.95;;;3.60;99.90;;;;;;5090760;28;20051;-71
2021/11/29 10:56:33;;;;;;;10.23;4.15;;;3.70;99.90;;;;;;5104940;28;20038;-67
2021/11/29 10:59:04;;;;;;;10.13;3.80;;;3.80;99.90;;;;;;5111671;28;20101;-71
2021/11/29 11:01:35;;;;;;;9.50;4.20;;;3.90;99.90;;;;;;5104209;28;20031;-70
2021/11/29 11:04:01;;;;;;;8.65;3.65;;;4.00;99.90;;;;;;5089883;28;20031;-70
2021/11/29 11:06:35;;;;;;;11.50;3.97;;;4.00;99.90;;;;;;5090852;28;20032;-68
2021/11/29 11:09:13;;;;;;;9.00;3.50;;;4.00;99.90;;;;;;5084807;28;20058;-71
2021/11/29 11:11:43;;;;;;;10.40;3.53;;;3.90;99.90;;;;;;5090603;28;20081;-72
2021/11/29 11:14:14;;;;;;;10.20;3.97;;;3.80;99.90;;;;;;5091102;28;20059;-70
2021/11/29 11:16:58;;;;;;;11.93;4.88;;;3.80;99.90;;;;;;5090633;28;20028;-71
2021/11/29 11:20:07;;;;;;;9.77;4.00;;;3.80;99.90;;;;;;5090826;28;20040;-71
2021/11/29 11:22:45;;;;;;;8.95;4.00;;;3.70;99.90;;;;;;5023494;28;20029;-69
2021/11/29 11:25:34;;;;;;;10.20;4.30;;;3.60;99.90;;;;;;5030909;28;20043;-70
2021/11/29 11:28:04;;;;;;;10.32;4.50;;;3.40;99.90;;;;;;5048643;28;20036;-70
2021/11/29 11:30:36;;;;;;;9.98;4.22;;;3.30;99.90;;;;;;5030477;28;20045;-68
2021/11/29 11:33:08;;;;;;;11.85;4.50;;;3.20;99.90;;;;;;5033007;28;20045;-75
2021/11/29 11:35:37;;;;;;;9.88;4.20;;;3.10;99.90;;;;;;5032150;28;20025;-71
2021/11/29 11:38:05;;;;;;;10.60;4.28;;;3.10;99.90;;;;;;5032197;28;20036;-70
2021/11/29 11:40:34;;;;;;;7.65;4.75;;;3.00;99.90;;;;;;5042356;28;20056;-69
2021/11/29 11:43:02;;;;;;;9.27;4.70;;;2.90;99.90;;;;;;5052393;28;20108;-70
2021/11/29 11:45:36;;;;;;;10.20;4.15;;;2.90;99.90;;;;;;5051275;28;20025;-68
2021/11/29 11:48:03;;;;;;;10.30;4.28;;;2.90;99.90;;;;;;5052231;28;20382;-71
2021/11/29 11:50:33;;;;;;;11.98;4.18;;;2.80;99.90;;;;;;5051715;28;20049;-68
2021/11/29 11:53:01;;;;;;;7.45;3.90;;;2.80;99.90;;;;;;5072298;28;20034;-70
2021/11/29 11:55:37;;;;;;;12.95;4.15;;;2.80;99.90;;;;;;5100208;28;20024;-68
2021/11/29 11:58:11;;;;;;;9.40;4.82;;;2.80;99.90;;;;;;5115210;28;20028;-71
2021/11/29 12:00:53;;;;;;;14.52;4.38;;;2.80;99.90;;;;;;5114364;28;20031;-73
2021/11/29 12:03:29;;;;;;;8.65;4.32;;;2.80;99.90;;;;;;5095317;28;20043;-79
2021/11/29 12:05:58;;;;;;;10.43;4.60;;;2.80;99.90;;;;;;5099760;28;20078;-81
2021/11/29 12:08:31;;;;;;;7.47;4.35;;;2.80;99.90;;;;;;5095107;28;20043;-77
2021/11/29 12:10:57;;;;;;;9.32;4.13;;;2.90;99.90;;;;;;5091471;28;20028;-81
2021/11/29 12:13:24;;;;;;;9.57;3.83;;;3.00;99.90;;;;;;5094334;28;20396;-74
2021/11/29 12:15:55;;;;;;;8.95;4.30;;;3.00;99.90;;;;;;5093331;28;20460;-76
2021/11/29 12:18:33;;;;;;;6.80;3.90;;;3.00;99.90;;;;;;5094557;28;20120;-68
2021/11/29 12:21:38;;;;;;;6.47;4.10;;;3.10;99.90;;;;;;5094378;28;20076;-68
2021/11/29 12:24:07;;;;;;;12.55;3.60;;;3.10;99.90;;;;;;5082371;28;20127;-69
2021/11/29 12:26:44;;;;;;;13.77;4.25;;;3.10;99.90;;;;;;5108412;28;20024;-68
2021/11/29 12:29:22;;;;;;;9.43;4.32;;;3.20;99.90;;;;;;5101090;28;20094;-73
2021/11/29 12:32:10;;;;;;;11.27;4.78;;;3.20;99.90;;;;;;5091867;28;20020;-71
2021/11/29 12:37:13;;;;;;;9.85;4.53;;;3.20;99.90;;;;;;5077033;28;20116;-71
2021/11/29 12:39:42;;;;;;;8.18;4.78;;;3.20;99.90;;;;;;5086097;28;20123;-72
2021/11/29 12:42:28;;;;;;;9.38;4.07;;;3.20;99.90;;;;;;5093108;28;20029;-70
2021/11/29 12:45:13;;;;;;;9.05;4.03;;;3.20;99.90;;;;;;5085586;28;20044;-70
2021/11/29 12:47:48;;;;;;;9.73;3.80;;;3.20;99.90;;;;;;5093038;28;20047;-71
2021/11/29 12:50:49;;;;;;;6.70;4.03;;;3.20;99.90;;;;;;5093741;28;20059;-71
2021/11/29 12:53:35;;;;;;;7.88;3.80;;;3.20;99.90;;;;;;5093599;28;20032;-71
2021/11/29 12:56:04;;;;;;;13.43;5.25;;;3.10;99.90;;;;;;5093353;28;20094;-71
2021/11/29 12:58:37;;;;;;;10.48;4.20;;;3.00;99.90;;;;;;5093365;28;20028;-68
2021/11/29 13:01:06;;;;;;;8.95;4.20;;;3.00;99.90;;;;;;5093441;28;20042;-70
2021/11/29 13:03:53;;;;;;;10.13;4.38;;;3.00;99.90;;;;;;5092877;28;20028;-68
2021/11/29 13:06:23;;;;;;;9.57;4.95;;;3.00;99.90;;;;;;5112387;28;20092;-70
2021/11/29 13:08:59;;;;;;;12.65;4.97;;;2.90;99.90;;;;;;5095333;28;20123;-69
2021/11/29 13:11:32;;;;;;;8.90;4.32;;;2.90;99.90;;;;;;5090906;28;20040;-71
2021/11/29 13:14:16;;;;;;;11.25;5.03;;;2.80;99.90;;;;;;5092262;28;20024;-70
2021/11/29 13:16:44;;;;;;;8.65;4.68;;;2.80;99.90;;;;;;5091899;28;20043;-71
2021/11/29 13:19:14;;;;;;;11.00;5.13;;;2.90;99.90;;;;;;5092439;28;20406;-69
2021/11/29 13:21:48;;;;;;;10.48;5.97;;;2.80;99.90;;;;;;5101419;28;20073;-72
2021/11/29 13:24:16;;;;;;;13.18;5.15;;;2.80;99.90;;;;;;5103519;28;20028;-68
2021/11/29 13:26:51;;;;;;;9.23;4.85;;;2.70;99.90;;;;;;5110549;28;20020;-71
2021/11/29 13:29:51;;;;;;;8.93;5.60;;;2.70;99.90;;;;;;5088619;28;20039;-71
2021/11/29 13:32:26;;;;;;;9.07;5.18;;;2.70;99.90;;;;;;5106128;28;20078;-70
2021/11/29 13:35:04;;;;;;;12.75;5.55;;;2.70;99.90;;;;;;5096805;28;20023;-69
2021/11/29 13:37:39;;;;;;;13.88;5.55;;;2.70;99.90;;;;;;5106224;28;20024;-68
2021/11/29 13:40:12;;;;;;;13.05;6.00;;;2.70;99.90;;;;;;5086193;28;20024;-69
2021/11/29 13:42:49;;;;;;;8.50;5.35;;;2.70;99.90;;;;;;5090751;28;20461;-68
2021/11/29 13:45:22;;;;;;;9.88;5.55;;;2.70;99.90;;;;;;5093059;28;20061;-69
2021/11/29 13:48:01;;;;;;;10.60;5.00;;;2.70;99.90;;;;;;5080010;28;20047;-69
2021/11/29 13:50:30;;;;;;;11.43;5.47;;;2.70;99.90;;;;;;5107944;28;20051;-69
2021/11/29 13:53:27;;;;;;;11.88;5.18;;;2.70;99.90;;;;;;5097179;28;20366;-69
2021/11/29 13:55:58;;;;;;;11.65;5.40;;;2.60;99.90;;;;;;5092708;28;20040;-70
2021/11/29 13:58:29;;;;;;;8.35;5.53;;;2.70;99.90;;;;;;5107143;28;20501;-69
2021/11/29 14:00:55;;;;;;;10.23;5.30;;;2.70;99.90;;;;;;5101238;28;20019;-69
2021/11/29 14:03:27;;;;;;;13.20;5.30;;;2.80;99.90;;;;;;5097487;28;20032;-69
2021/11/29 14:05:58;;;;;;;8.00;5.32;;;2.80;99.90;;;;;;5093360;28;20016;-69
2021/11/29 14:08:46;;;;;;;10.05;5.00;;;2.80;99.90;;;;;;5094345;28;20473;-69